createdAt,value
2022-12-18T00:02:02.027Z,16.40
2022-12-18T00:05:04.333Z,17.93
2022-12-18T00:08:09.279Z,15.93
2022-12-18T00:11:13.085Z,16.50
2022-12-18T00:14:15.237Z,10.90
2022-12-18T00:17:17.315Z,13.02
2022-12-18T00:20:26.459Z,12.07
2022-12-18T00:23:28.865Z,11.30
2022-12-18T00:26:32.553Z,11.27
2022-12-18T00:29:37.213Z,17.50
2022-12-18T00:32:39.311Z,11.02
2022-12-18T00:35:41.362Z,13.57
2022-12-18T00:38:43.877Z,16.02
2022-12-18T00:42:04.656Z,15.43
2022-12-18T00:45:12.383Z,13.35
2022-12-18T00:48:15.361Z,13.00
2022-12-18T00:51:17.421Z,13.82
2022-12-18T00:54:19.643Z,12.13
2022-12-18T00:57:25.910Z,13.90
2022-12-18T01:00:28.117Z,11.90
2022-12-18T01:03:30.333Z,14.20
2022-12-18T01:06:32.588Z,14.53
2022-12-18T01:09:35.702Z,14.23
2022-12-18T01:12:37.905Z,14.88
2022-12-18T01:15:40.990Z,14.23
2022-12-18T01:18:46.513Z,14.63
2022-12-18T01:21:48.618Z,13.57
2022-12-18T01:24:50.732Z,14.05
2022-12-18T01:27:52.869Z,13.80
2022-12-18T01:30:54.972Z,14.57
2022-12-18T01:33:57.504Z,12.35
2022-12-18T01:36:59.587Z,13.93
2022-12-18T01:40:02.041Z,15.05
2022-12-18T01:43:04.433Z,14.18
2022-12-18T01:46:06.546Z,11.95
2022-12-18T01:49:08.662Z,12.02
2022-12-18T01:52:10.817Z,12.73
2022-12-18T01:55:13.462Z,12.77
2022-12-18T01:58:16.283Z,9.60
2022-12-18T02:01:18.907Z,10.95
2022-12-18T02:04:25.317Z,11.70
2022-12-18T02:07:49.569Z,11.23
2022-12-18T02:10:52.556Z,12.48
2022-12-18T02:13:59.846Z,13.18
2022-12-18T02:17:04.880Z,11.05
2022-12-18T02:20:07.804Z,11.53
2022-12-18T02:23:39.571Z,12.40
2022-12-18T02:26:46.686Z,11.07
2022-12-18T02:29:57.838Z,15.23
2022-12-18T02:33:02.075Z,14.15
2022-12-18T02:36:06.410Z,15.05
2022-12-18T02:39:10.614Z,12.60
2022-12-18T02:42:17.270Z,13.65
2022-12-18T02:45:19.433Z,12.00
2022-12-18T02:48:33.600Z,13.32
2022-12-18T02:51:56.185Z,9.50
2022-12-18T02:55:03.137Z,11.95
2022-12-18T02:58:17.309Z,10.57
2022-12-18T03:01:32.623Z,11.47
2022-12-18T03:04:53.866Z,12.18
2022-12-18T03:07:59.436Z,10.68
2022-12-18T03:11:07.113Z,13.43
2022-12-18T03:14:10.501Z,10.68
2022-12-18T03:17:18.603Z,12.35
2022-12-18T03:20:23.042Z,14.95
2022-12-18T03:23:26.908Z,15.83
2022-12-18T03:26:30.211Z,14.32
2022-12-18T03:29:42.009Z,13.80
2022-12-18T03:33:00.401Z,14.93
2022-12-18T03:36:03.716Z,15.27
2022-12-18T03:39:06.075Z,15.07
2022-12-18T03:42:18.897Z,15.90
2022-12-18T03:45:35.120Z,14.40
2022-12-18T03:48:52.833Z,15.90
2022-12-18T03:52:01.427Z,15.02
2022-12-18T03:55:04.456Z,15.70
2022-12-18T03:58:08.365Z,16.17
2022-12-18T04:01:32.735Z,15.98
2022-12-18T04:04:36.755Z,20.70
2022-12-18T04:07:40.294Z,21.90
2022-12-18T04:10:44.602Z,18.42
2022-12-18T04:13:48.106Z,16.27
2022-12-18T04:16:57.672Z,16.45
2022-12-18T04:20:05.807Z,16.65
2022-12-18T04:23:08.047Z,15.77
2022-12-18T04:26:10.246Z,15.13
2022-12-18T04:29:26.956Z,17.15
2022-12-18T04:32:29.277Z,15.20
2022-12-18T04:35:31.438Z,15.33
2022-12-18T04:38:33.698Z,14.40
2022-12-18T04:41:42.298Z,14.93
2022-12-18T04:44:45.741Z,14.85
2022-12-18T04:47:47.834Z,15.13
2022-12-18T04:50:50.326Z,16.33
2022-12-18T04:53:52.449Z,17.52
2022-12-18T04:56:54.691Z,16.97
2022-12-18T04:59:57.475Z,17.50
2022-12-18T05:03:01.634Z,19.70
2022-12-18T05:06:05.074Z,16.67
2022-12-18T05:09:07.295Z,17.20
2022-12-18T05:12:09.362Z,17.77
2022-12-18T05:15:11.786Z,19.33
2022-12-18T05:18:13.874Z,17.73
2022-12-18T05:21:16.171Z,19.83
2022-12-18T05:24:18.284Z,20.92
2022-12-18T05:27:21.728Z,18.60
2022-12-18T05:30:24.249Z,18.40
2022-12-18T05:33:27.629Z,19.38
2022-12-18T05:36:29.805Z,19.70
2022-12-18T05:39:32.089Z,17.98
2022-12-18T05:42:34.251Z,18.35
2022-12-18T05:45:38.209Z,19.13
2022-12-18T05:48:41.096Z,18.23
2022-12-18T05:51:43.213Z,20.05
2022-12-18T05:54:45.450Z,22.00
2022-12-18T05:57:47.570Z,23.50
2022-12-18T06:00:50.017Z,20.98
2022-12-18T06:03:52.299Z,21.58
2022-12-18T06:06:54.486Z,21.83
2022-12-18T06:09:56.990Z,21.15
2022-12-18T06:12:59.248Z,21.27
2022-12-18T06:16:07.540Z,23.25
2022-12-18T06:19:14.960Z,23.60
2022-12-18T06:22:17.933Z,21.70
2022-12-18T06:25:20.101Z,21.10
2022-12-18T06:28:22.293Z,20.37
2022-12-18T06:31:24.863Z,20.98
2022-12-18T06:34:27.093Z,21.25
2022-12-18T06:37:29.314Z,22.00
2022-12-18T06:40:31.467Z,19.42
2022-12-18T06:43:33.573Z,19.83
2022-12-18T06:46:35.774Z,25.17
2022-12-18T06:49:37.879Z,23.42
2022-12-18T06:52:41.264Z,19.92
2022-12-18T06:55:43.567Z,19.95
2022-12-18T06:58:45.667Z,18.43
2022-12-18T07:01:47.965Z,13.90
2022-12-18T07:05:11.030Z,19.52
2022-12-18T07:08:13.463Z,16.87
2022-12-18T07:11:16.037Z,18.05
2022-12-18T07:14:18.133Z,18.27
2022-12-18T07:17:20.284Z,25.80
2022-12-18T07:20:22.366Z,24.15
2022-12-18T07:23:24.713Z,24.30
2022-12-18T07:26:27.358Z,23.55
2022-12-18T07:29:29.540Z,22.60
2022-12-18T07:32:31.633Z,25.55
2022-12-18T07:35:34.209Z,25.98
2022-12-18T07:38:36.641Z,26.37
2022-12-18T07:41:42.484Z,25.27
2022-12-18T07:44:51.604Z,26.30
2022-12-18T07:47:53.635Z,26.38
2022-12-18T07:50:59.230Z,26.15
2022-12-18T07:54:01.344Z,26.60
2022-12-18T07:57:03.447Z,27.17
2022-12-18T08:00:05.835Z,28.23
2022-12-18T08:03:14.372Z,26.30
2022-12-18T08:06:16.502Z,25.40
2022-12-18T08:09:18.800Z,27.00
2022-12-18T08:12:21.007Z,24.67
2022-12-18T08:15:23.149Z,25.83
2022-12-18T08:18:25.904Z,24.40
2022-12-18T08:21:28.992Z,23.23
2022-12-18T08:24:31.108Z,25.50
2022-12-18T08:27:33.418Z,24.33
2022-12-18T08:30:36.715Z,22.63
2022-12-18T08:33:40.427Z,23.73
2022-12-18T08:36:43.611Z,23.75
2022-12-18T08:39:45.808Z,25.07
2022-12-18T08:43:06.829Z,23.27
2022-12-18T08:46:08.999Z,22.83
2022-12-18T08:49:12.059Z,23.13
2022-12-18T08:52:17.357Z,21.70
2022-12-18T08:55:19.621Z,22.63
2022-12-18T08:58:22.775Z,21.95
2022-12-18T09:01:25.255Z,22.07
2022-12-18T09:04:27.462Z,22.40
2022-12-18T09:07:29.643Z,21.63
2022-12-18T09:10:33.009Z,20.80
2022-12-18T09:13:35.238Z,20.60
2022-12-18T09:16:37.427Z,21.02
2022-12-18T09:19:39.543Z,22.45
2022-12-18T09:22:41.712Z,22.23
2022-12-18T09:25:43.795Z,22.00
2022-12-18T09:28:46.156Z,21.02
2022-12-18T09:31:48.334Z,21.50
2022-12-18T09:34:50.519Z,20.40
2022-12-18T09:37:52.574Z,20.65
2022-12-18T09:40:57.073Z,20.92
2022-12-18T09:44:02.033Z,19.70
2022-12-18T09:47:19.390Z,20.02
2022-12-18T09:50:28.037Z,18.92
2022-12-18T09:53:33.057Z,19.97
2022-12-18T09:56:41.149Z,19.35
2022-12-18T09:59:45.045Z,20.13
2022-12-18T10:02:47.957Z,19.23
2022-12-18T10:05:59.382Z,19.80
2022-12-18T10:09:07.398Z,19.25
2022-12-18T10:12:15.009Z,19.60
2022-12-18T10:15:17.142Z,19.80
2022-12-18T10:18:22.014Z,20.48
2022-12-18T10:21:38.836Z,19.65
2022-12-18T10:24:46.039Z,20.00
2022-12-18T10:27:48.384Z,19.67
2022-12-18T10:30:50.596Z,21.67
2022-12-18T10:33:54.950Z,21.50
2022-12-18T10:36:58.479Z,21.83
2022-12-18T10:40:22.048Z,21.45
2022-12-18T10:43:28.872Z,19.83
2022-12-18T10:46:31.139Z,20.03
2022-12-18T10:49:34.480Z,20.75
2022-12-18T10:52:39.617Z,21.55
2022-12-18T10:55:46.837Z,20.20
2022-12-18T10:59:02.535Z,20.70
2022-12-18T11:02:24.756Z,20.30
2022-12-18T11:05:28.649Z,20.25
2022-12-18T11:08:31.284Z,21.37
2022-12-18T11:11:34.256Z,19.73
2022-12-18T11:14:46.739Z,20.45
2022-12-18T11:17:50.273Z,20.67
2022-12-18T11:20:58.283Z,22.00
2022-12-18T11:24:00.892Z,21.77
2022-12-18T11:27:04.487Z,19.92
2022-12-18T11:30:25.311Z,20.40
2022-12-18T11:33:27.857Z,20.40
2022-12-18T11:36:31.974Z,17.98
2022-12-18T11:39:39.662Z,19.42
2022-12-18T11:43:17.451Z,16.73
2022-12-18T11:46:26.357Z,16.58
2022-12-18T11:49:37.974Z,19.38
2022-12-18T11:52:41.289Z,19.45
2022-12-18T11:55:46.578Z,20.50
2022-12-18T11:59:08.957Z,20.88
2022-12-18T12:02:11.148Z,18.90
2022-12-18T12:05:16.482Z,20.08
2022-12-18T12:08:21.738Z,20.47
2022-12-18T12:11:30.182Z,20.73
2022-12-18T12:14:35.099Z,19.98
2022-12-18T12:17:50.245Z,19.50
2022-12-18T12:21:10.657Z,19.93
2022-12-18T12:24:19.109Z,18.92
2022-12-18T12:27:34.490Z,20.02
2022-12-18T12:30:57.330Z,18.73
2022-12-18T12:34:08.165Z,18.92
2022-12-18T12:37:19.910Z,18.95
2022-12-18T12:40:51.301Z,19.20
2022-12-18T12:43:50.991Z,19.77
2022-12-18T12:46:56.259Z,19.17
2022-12-18T12:49:59.722Z,21.00
2022-12-18T12:53:02.369Z,20.75
2022-12-18T12:56:05.481Z,20.57
2022-12-18T12:59:35.075Z,20.45
2022-12-18T13:02:56.007Z,21.30
2022-12-18T13:06:04.481Z,21.90
2022-12-18T13:09:07.567Z,22.20
2022-12-18T13:12:34.972Z,21.75
2022-12-18T13:15:46.751Z,21.08
2022-12-18T13:18:50.633Z,22.03
2022-12-18T13:21:57.353Z,20.73
2022-12-18T13:25:00.283Z,20.25
2022-12-18T13:28:10.292Z,21.08
2022-12-18T13:31:13.119Z,21.13
2022-12-18T13:34:30.899Z,21.60
2022-12-18T13:37:33.432Z,23.60
2022-12-18T13:40:47.826Z,24.85
2022-12-18T13:43:51.358Z,22.73
2022-12-18T13:46:53.772Z,22.38
2022-12-18T13:49:57.258Z,23.65
2022-12-18T13:52:59.508Z,23.10
2022-12-18T13:56:02.762Z,21.47
2022-12-18T13:59:13.550Z,22.38
2022-12-18T14:02:18.083Z,23.63
2022-12-18T14:05:31.363Z,24.20
2022-12-18T14:08:39.576Z,23.57
2022-12-18T14:11:46.732Z,23.45
2022-12-18T14:14:51.595Z,22.95
2022-12-18T14:18:01.971Z,22.10
2022-12-18T14:21:04.794Z,23.80
2022-12-18T14:24:09.927Z,23.23
2022-12-18T14:27:23.180Z,24.17
2022-12-18T14:30:39.665Z,23.63
2022-12-18T14:33:42.262Z,22.67
2022-12-18T14:36:53.341Z,22.00
2022-12-18T14:39:57.615Z,23.10
2022-12-18T14:42:59.708Z,22.65
2022-12-18T14:46:02.692Z,22.00
2022-12-18T14:49:20.309Z,22.35
2022-12-18T14:52:27.692Z,22.88
2022-12-18T14:55:29.869Z,22.52
2022-12-18T14:58:32.458Z,21.80
2022-12-18T15:01:38.454Z,21.45
2022-12-18T15:04:43.167Z,23.98
2022-12-18T15:07:50.010Z,21.83
2022-12-18T15:10:52.367Z,24.07
2022-12-18T15:13:54.792Z,24.67
2022-12-18T15:16:57.575Z,26.20
2022-12-18T15:20:04.380Z,24.65
2022-12-18T15:23:14.196Z,23.40
2022-12-18T15:26:17.383Z,22.00
2022-12-18T15:29:24.372Z,20.30
2022-12-18T15:32:26.926Z,20.40
2022-12-18T15:35:29.247Z,21.20
2022-12-18T15:38:32.319Z,20.40
2022-12-18T15:41:36.033Z,20.27
2022-12-18T15:44:38.893Z,20.20
2022-12-18T15:47:42.684Z,21.02
2022-12-18T15:50:45.467Z,21.95
2022-12-18T15:53:52.504Z,22.70
2022-12-18T15:57:13.391Z,20.77
2022-12-18T16:00:16.065Z,20.25
2022-12-18T16:03:18.510Z,18.08
2022-12-18T16:06:21.792Z,18.93
2022-12-18T16:09:26.462Z,17.90
2022-12-18T16:12:29.042Z,17.55
2022-12-18T16:15:31.453Z,17.83
2022-12-18T16:18:33.821Z,16.60
2022-12-18T16:21:36.546Z,17.02
2022-12-18T16:24:39.966Z,17.27
2022-12-18T16:27:42.395Z,19.10
2022-12-18T16:30:45.982Z,19.92
2022-12-18T16:33:48.341Z,19.60
2022-12-18T16:36:51.034Z,19.43
2022-12-18T16:39:53.386Z,18.63
2022-12-18T16:42:55.759Z,18.75
2022-12-18T16:45:59.579Z,18.23
2022-12-18T16:49:01.901Z,19.90
2022-12-18T16:52:05.333Z,20.60
2022-12-18T16:55:09.353Z,21.85
2022-12-18T16:58:11.507Z,18.90
2022-12-18T17:01:14.006Z,19.90
2022-12-18T17:04:17.247Z,20.83
2022-12-18T17:07:19.580Z,21.07
2022-12-18T17:10:22.212Z,19.75
2022-12-18T17:13:26.676Z,20.33
2022-12-18T17:16:30.106Z,20.50
2022-12-18T17:19:33.670Z,19.77
2022-12-18T17:22:36.046Z,20.42
2022-12-18T17:25:41.430Z,18.27
2022-12-18T17:28:43.996Z,23.50
2022-12-18T17:31:47.052Z,22.52
2022-12-18T17:34:49.454Z,21.33
2022-12-18T17:37:51.788Z,21.73
2022-12-18T17:40:53.956Z,19.80
2022-12-18T17:43:57.633Z,18.75
2022-12-18T17:46:59.757Z,18.45
2022-12-18T17:50:01.888Z,19.40
2022-12-18T17:53:04.272Z,19.17
2022-12-18T17:56:07.294Z,20.17
2022-12-18T17:59:10.729Z,23.07
2022-12-18T18:02:13.709Z,31.80
2022-12-18T18:05:16.625Z,28.20
2022-12-18T18:08:20.319Z,28.48
2022-12-18T18:11:43.062Z,30.00
2022-12-18T18:14:45.782Z,33.28
2022-12-18T18:17:48.586Z,38.92
2022-12-18T18:20:51.108Z,35.07
2022-12-18T18:23:59.220Z,27.85
2022-12-18T18:27:01.360Z,29.02
2022-12-18T18:30:04.122Z,33.13
2022-12-18T18:33:11.844Z,33.13
2022-12-18T18:36:14.674Z,37.95
2022-12-18T18:39:17.052Z,39.28
2022-12-18T18:42:19.324Z,37.35
2022-12-18T18:45:21.789Z,39.13
2022-12-18T18:48:24.514Z,41.50
2022-12-18T18:51:34.837Z,42.67
2022-12-18T18:54:37.658Z,38.05
2022-12-18T18:57:40.011Z,33.00
2022-12-18T19:00:42.388Z,33.87
2022-12-18T19:03:45.868Z,32.38
2022-12-18T19:06:49.356Z,30.38
2022-12-18T19:09:54.144Z,28.90
2022-12-18T19:13:15.551Z,29.15
2022-12-18T19:16:17.710Z,26.17
2022-12-18T19:19:21.094Z,25.05
2022-12-18T19:22:24.183Z,27.33
2022-12-18T19:25:40.327Z,40.17
2022-12-18T19:28:44.223Z,35.58
2022-12-18T19:31:47.021Z,19.30
2022-12-18T19:34:49.130Z,21.42
2022-12-18T19:37:52.476Z,23.13
2022-12-18T19:40:54.768Z,21.65
2022-12-18T19:43:58.528Z,25.08
2022-12-18T19:47:01.354Z,22.92
2022-12-18T19:50:04.500Z,23.45
2022-12-18T19:53:06.702Z,18.93
2022-12-18T19:56:13.106Z,19.92
2022-12-18T19:59:15.609Z,21.00
2022-12-18T20:02:19.153Z,20.80
2022-12-18T20:05:25.293Z,20.75
2022-12-18T20:08:27.929Z,20.23
2022-12-18T20:11:30.847Z,20.83
2022-12-18T20:14:32.930Z,21.20
2022-12-18T20:17:35.040Z,20.08
2022-12-18T20:20:37.703Z,18.15
2022-12-18T20:23:40.376Z,16.03
2022-12-18T20:26:43.261Z,14.88
2022-12-18T20:29:45.659Z,15.75
2022-12-18T20:32:47.799Z,16.73
2022-12-18T20:35:50.335Z,18.38
2022-12-18T20:38:55.784Z,16.80
2022-12-18T20:42:01.586Z,17.95
2022-12-18T20:45:04.048Z,19.73
2022-12-18T20:48:06.318Z,18.85
2022-12-18T20:51:10.742Z,21.42
2022-12-18T20:54:12.876Z,22.37
2022-12-18T20:57:15.025Z,26.20
2022-12-18T21:00:18.900Z,21.95
2022-12-18T21:03:23.463Z,20.27
2022-12-18T21:06:25.830Z,18.50
2022-12-18T21:09:28.277Z,17.00
2022-12-18T21:12:50.984Z,17.15
2022-12-18T21:16:04.061Z,16.63
2022-12-18T21:19:07.951Z,15.77
2022-12-18T21:22:10.209Z,17.23
2022-12-18T21:25:12.570Z,18.60
2022-12-18T21:28:14.838Z,17.90
2022-12-18T21:31:17.446Z,18.02
2022-12-18T21:34:20.964Z,21.87
2022-12-18T21:37:23.081Z,20.67
2022-12-18T21:40:25.411Z,22.58
2022-12-18T21:43:46.599Z,23.48
2022-12-18T21:46:55.194Z,25.85
2022-12-18T21:50:00.388Z,26.73
2022-12-18T21:53:02.581Z,28.40
2022-12-18T21:56:04.940Z,29.27
2022-12-18T21:59:07.067Z,28.63
2022-12-18T22:02:20.050Z,28.65
2022-12-18T22:05:22.489Z,24.43
2022-12-18T22:08:24.889Z,21.67
2022-12-18T22:11:27.161Z,19.90
2022-12-18T22:14:29.442Z,19.48
2022-12-18T22:17:31.958Z,19.33
2022-12-18T22:20:34.500Z,22.15
2022-12-18T22:23:36.583Z,20.25
2022-12-18T22:26:40.317Z,23.40
2022-12-18T22:30:01.368Z,25.23
2022-12-18T22:33:03.913Z,23.60
2022-12-18T22:36:06.978Z,23.37
2022-12-18T22:39:17.483Z,22.20
2022-12-18T22:42:19.806Z,24.45
2022-12-18T22:45:25.753Z,23.13
2022-12-18T22:48:28.085Z,24.73
2022-12-18T22:51:30.540Z,26.88
2022-12-18T22:54:32.816Z,25.98
2022-12-18T22:57:35.234Z,24.90
2022-12-18T23:00:38.827Z,23.58
2022-12-18T23:03:40.957Z,23.00
2022-12-18T23:06:43.865Z,22.07
2022-12-18T23:09:46.005Z,23.10
2022-12-18T23:12:50.427Z,22.90
2022-12-18T23:15:56.006Z,20.95
2022-12-18T23:18:58.108Z,18.15
2022-12-18T23:22:02.891Z,18.98
2022-12-18T23:25:06.458Z,21.27
2022-12-18T23:28:11.105Z,21.93
2022-12-18T23:31:17.749Z,24.27
2022-12-18T23:34:20.061Z,24.15
2022-12-18T23:37:49.794Z,27.90
2022-12-18T23:40:44.469Z,31.88
2022-12-18T23:43:48.710Z,33.47
2022-12-18T23:46:50.948Z,29.05
2022-12-18T23:49:53.184Z,27.23
2022-12-18T23:53:00.667Z,29.67
2022-12-18T23:56:08.500Z,28.73
2022-12-18T23:59:10.692Z,29.50
